Time;durP1;ratioP1;P1;durP2;ratioP2;P2;SDS_P1;SDS_P2;PMS_P1;PMS_P2;Temp;Humidity;BMP_temperature;BMP_pressure;BME280_temperature;BME280_humidity;BME280_pressure;Samples;Min_cycle;Max_cycle;Signal;HPM_P1;HPM_P2
2022/04/12 00:01:36;;;;;;;5.85;2.53;;;;;;;3.63;49.00;94341.19;5123618;28;20015;-76
2022/04/12 00:04:02;;;;;;;6.65;3.03;;;;;;;3.62;49.08;94337.72;5123524;28;20016;-76
2022/04/12 00:06:27;;;;;;;6.80;3.00;;;;;;;3.60;48.94;94353.00;5123351;28;20015;-78
2022/04/12 00:08:53;;;;;;;6.85;3.10;;;;;;;3.65;48.84;94347.78;5123516;28;20039;-77
2022/04/12 00:11:19;;;;;;;9.98;3.40;;;;;;;3.61;48.80;94336.94;5123482;28;20217;-76
2022/04/12 00:13:44;;;;;;;6.07;3.05;;;;;;;3.69;48.78;94340.16;5123662;28;20035;-77
2022/04/12 00:16:10;;;;;;;6.70;2.78;;;;;;;3.64;48.64;94335.63;5123404;28;20100;-78
2022/04/12 00:21:19;;;;;;;4.43;2.58;;;;;;;3.63;49.00;94328.78;5123630;28;20100;-77
2022/04/12 00:23:45;;;;;;;5.75;2.80;;;;;;;3.56;49.13;94323.75;5123323;28;20011;-76
2022/04/12 00:26:11;;;;;;;5.68;3.00;;;;;;;3.53;49.55;94324.25;5123267;28;20023;-77
2022/04/12 00:28:36;;;;;;;5.82;2.53;;;;;;;3.51;49.16;94322.94;5123415;28;20257;-77
2022/04/12 00:31:02;;;;;;;5.78;3.00;;;;;;;3.48;49.24;94320.81;5123120;28;20367;-77
2022/04/12 00:33:29;;;;;;;7.32;3.38;;;;;;;3.46;49.19;94315.00;5123131;28;20028;-76
2022/04/12 00:35:56;;;;;;;8.43;2.88;;;;;;;3.47;49.30;94317.38;5104791;28;20088;-77
2022/04/12 00:38:25;;;;;;;7.95;3.13;;;;;;;3.47;49.15;94312.13;5122974;28;20061;-78
2022/04/12 00:40:51;;;;;;;4.80;2.80;;;;;;;3.46;49.12;94317.63;5123461;28;20020;-79
2022/04/12 00:43:19;;;;;;;7.03;2.75;;;;;;;3.41;49.04;94313.13;5123053;28;20020;-77
2022/04/12 00:45:46;;;;;;;8.90;2.70;;;;;;;3.36;49.03;94302.59;5123185;28;20297;-78
2022/04/12 00:48:11;;;;;;;9.35;2.53;;;;;;;3.36;49.61;94303.38;5126367;28;20096;-79
2022/04/12 00:50:38;;;;;;;5.55;2.45;;;;;;;3.29;49.45;94297.53;5127434;28;20031;-78
2022/04/12 00:53:06;;;;;;;7.97;3.22;;;;;;;3.29;49.33;94310.69;5127168;28;20207;-77
2022/04/12 00:55:31;;;;;;;4.95;2.65;;;;;;;3.29;49.34;94313.34;5127209;28;20371;-77
2022/04/12 00:57:58;;;;;;;6.20;3.40;;;;;;;3.31;49.63;94313.09;5127408;28;20023;-77
2022/04/12 01:00:24;;;;;;;7.13;3.47;;;;;;;3.26;49.76;94305.97;5127179;28;20046;-77
2022/04/12 01:02:49;;;;;;;6.82;3.25;;;;;;;3.29;49.81;94304.66;5127233;28;20314;-77
2022/04/12 01:05:15;;;;;;;11.45;2.78;;;;;;;3.28;49.72;94303.06;5108963;28;20023;-77
2022/04/12 01:07:42;;;;;;;7.38;3.08;;;;;;;3.33;49.55;94298.59;5127040;28;20226;-77
2022/04/12 01:10:08;;;;;;;7.40;3.28;;;;;;;3.31;49.83;94305.97;5127095;28;20222;-76
2022/04/12 01:12:41;;;;;;;5.95;3.00;;;;;;;3.31;50.02;94303.34;5126991;28;20028;-76
2022/04/12 01:15:10;;;;;;;9.23;3.28;;;;;;;3.28;50.08;94314.41;5126816;28;20108;-77
2022/04/12 01:17:35;;;;;;;7.47;3.10;;;;;;;3.31;50.08;94305.97;5126810;28;20023;-77
2022/04/12 01:20:01;;;;;;;7.03;3.38;;;;;;;3.25;49.92;94303.56;5126866;28;20027;-77
2022/04/12 01:22:27;;;;;;;7.88;3.17;;;;;;;3.29;49.84;94300.16;5108653;28;20027;-77
2022/04/12 01:24:53;;;;;;;6.05;3.15;;;;;;;3.30;49.84;94293.06;5126795;28;20031;-77
2022/04/12 01:27:19;;;;;;;10.60;3.65;;;;;;;3.31;49.74;94294.66;5108667;28;20065;-78
2022/04/12 01:29:47;;;;;;;7.20;2.90;;;;;;;3.26;49.73;94300.69;5126665;28;20027;-78
2022/04/12 01:32:13;;;;;;;8.02;3.22;;;;;;;3.21;49.73;94298.81;5126623;28;20229;-78
2022/04/12 01:34:39;;;;;;;5.95;3.05;;;;;;;3.24;49.48;94299.34;5126477;28;20263;-77
2022/04/12 01:37:05;;;;;;;5.57;2.90;;;;;;;3.21;49.40;94305.91;5126577;28;20019;-78
2022/04/12 01:39:31;;;;;;;7.60;3.25;;;;;;;3.23;49.39;94301.19;5126570;28;20030;-78
2022/04/12 01:41:57;;;;;;;6.75;3.20;;;;;;;3.28;49.46;94303.88;5126299;28;20086;-78
2022/04/12 01:44:22;;;;;;;4.97;3.08;;;;;;;3.23;49.79;94298.56;5126354;28;20214;-78
2022/04/12 01:46:48;;;;;;;6.47;3.28;;;;;;;3.25;49.41;94300.94;5126389;28;20107;-78
2022/04/12 01:49:13;;;;;;;6.07;3.47;;;;;;;3.29;49.29;94302.81;5126262;28;20023;-77
2022/04/12 01:51:39;;;;;;;5.60;3.15;;;;;;;3.27;49.44;94304.91;5126190;28;20031;-78
2022/04/12 01:54:05;;;;;;;5.20;2.85;;;;;;;3.31;49.30;94298.06;5126286;28;20095;-78
2022/04/12 01:56:31;;;;;;;6.25;3.00;;;;;;;3.29;49.49;94297.53;5126024;28;20023;-78
2022/04/12 01:58:58;;;;;;;5.13;2.58;;;;;;;3.30;49.64;94301.75;5125480;28;20030;-78
2022/04/12 02:01:24;;;;;;;6.10;3.40;;;;;;;3.30;49.09;94307.03;5125803;28;20015;-78
2022/04/12 02:03:49;;;;;;;7.15;3.05;;;;;;;3.27;49.46;94299.63;5126350;28;20018;-77
2022/04/12 02:06:15;;;;;;;5.30;2.88;;;;;;;3.30;49.36;94290.44;5107675;28;20091;-77
2022/04/12 02:08:40;;;;;;;5.35;2.97;;;;;;;3.27;49.27;94290.94;5125927;28;20321;-78
2022/04/12 02:11:06;;;;;;;5.50;2.83;;;;;;;3.25;49.51;94301.72;5125591;28;20041;-78
2022/04/12 02:13:32;;;;;;;8.90;3.63;;;;;;;3.25;49.35;94285.13;5125775;28;20390;-77
2022/04/12 02:15:58;;;;;;;6.93;3.38;;;;;;;3.21;49.95;94292.75;5125957;28;20039;-78
2022/04/12 02:18:23;;;;;;;7.63;3.75;;;;;;;3.20;49.90;94288.53;5125771;28;20019;-78
2022/04/12 02:20:48;;;;;;;6.25;3.97;;;;;;;3.24;49.55;94279.09;5125857;28;20019;-78
2022/04/12 02:23:14;;;;;;;7.03;3.47;;;;;;;3.24;49.66;94297.53;5125472;28;20016;-77
2022/04/12 02:25:39;;;;;;;6.90;3.40;;;;;;;3.22;49.60;94286.44;5125473;28;20024;-77
2022/04/12 02:28:05;;;;;;;5.90;3.63;;;;;;;3.26;49.62;94284.06;5125228;28;20024;-77
2022/04/12 02:30:30;;;;;;;7.97;4.80;;;;;;;3.24;49.04;94294.88;5125464;28;20020;-77
2022/04/12 02:32:56;;;;;;;7.97;3.05;;;;;;;3.26;49.06;94282.25;5125308;28;20027;-78
2022/04/12 02:35:21;;;;;;;6.88;3.17;;;;;;;3.30;49.03;94287.81;5125308;28;20333;-77
2022/04/12 02:37:47;;;;;;;7.60;3.20;;;;;;;3.34;48.99;94288.88;5107014;28;20043;-77
2022/04/12 02:40:12;;;;;;;8.00;3.03;;;;;;;3.35;48.68;94293.88;5125319;28;20019;-78
2022/04/12 02:42:38;;;;;;;8.25;3.22;;;;;;;3.38;48.58;94290.75;5125067;28;20244;-77
2022/04/12 02:45:04;;;;;;;5.93;3.60;;;;;;;3.41;48.52;94289.44;5125220;28;20023;-77
2022/04/12 02:47:29;;;;;;;6.38;3.00;;;;;;;3.42;48.48;94289.19;5125222;28;20099;-77
2022/04/12 02:49:55;;;;;;;8.10;3.38;;;;;;;3.39;48.18;94288.88;5125473;28;20016;-77
2022/04/12 02:52:21;;;;;;;10.18;3.53;;;;;;;3.41;48.28;94290.22;5125149;28;20317;-77
2022/04/12 02:54:46;;;;;;;7.45;3.03;;;;;;;3.44;48.14;94298.66;5125017;28;20083;-78
2022/04/12 02:57:12;;;;;;;9.45;3.42;;;;;;;3.42;48.36;94280.47;5124817;28;20049;-77
2022/04/12 02:59:37;;;;;;;7.60;2.78;;;;;;;3.49;48.41;94285.50;5125022;28;20011;-78
2022/04/12 03:02:03;;;;;;;8.88;3.45;;;;;;;3.54;48.57;94293.41;5124942;28;20015;-77
2022/04/12 03:04:28;;;;;;;7.60;2.60;;;;;;;3.56;48.26;94293.94;5124693;28;20015;-77
2022/04/12 03:06:54;;;;;;;6.25;3.25;;;;;;;3.60;48.85;94287.13;5106884;28;20032;-78
2022/04/12 03:09:19;;;;;;;5.07;3.00;;;;;;;3.62;48.67;94295.56;5125151;28;20019;-78
2022/04/12 03:11:45;;;;;;;9.25;3.72;;;;;;;3.60;48.91;94292.38;5123838;28;20030;-78
2022/04/12 03:14:10;;;;;;;5.82;3.08;;;;;;;3.61;49.78;94297.41;5124516;28;20019;-78
2022/04/12 03:16:36;;;;;;;7.90;3.55;;;;;;;3.59;50.26;94285.53;5124872;28;20047;-78
2022/04/12 03:19:01;;;;;;;8.48;3.75;;;;;;;3.58;50.32;94284.75;5124745;28;20023;-79
2022/04/12 03:21:27;;;;;;;16.27;3.55;;;;;;;3.55;50.09;94282.63;5124831;28;20090;-79
2022/04/12 03:23:52;;;;;;;13.07;3.72;;;;;;;3.54;50.75;94296.06;5124643;28;20370;-80
2022/04/12 03:26:18;;;;;;;6.68;3.30;;;;;;;3.52;50.52;94296.34;5124528;28;20028;-79
2022/04/12 03:28:43;;;;;;;16.25;3.75;;;;;;;3.52;50.63;94300.78;5124366;28;20027;-79
2022/04/12 03:31:09;;;;;;;6.85;3.30;;;;;;;3.47;50.85;94303.41;5124360;28;20065;-79
2022/04/12 03:33:34;;;;;;;8.30;3.75;;;;;;;3.38;50.95;94296.00;5124077;28;20024;-78
2022/04/12 03:36:00;;;;;;;5.57;3.05;;;;;;;3.31;51.13;94294.66;5124338;28;20098;-79
2022/04/12 03:38:25;;;;;;;5.90;3.17;;;;;;;3.24;51.59;94304.63;5124236;28;20326;-76
2022/04/12 03:40:51;;;;;;;9.00;3.38;;;;;;;3.20;52.17;94310.41;5124246;28;20027;-76
2022/04/12 03:43:17;;;;;;;8.90;3.38;;;;;;;3.18;52.30;94317.78;5123681;28;20024;-76
2022/04/12 03:45:42;;;;;;;6.45;3.60;;;;;;;3.11;52.72;94308.50;5124114;28;20031;-76
2022/04/12 03:48:08;;;;;;;8.13;3.30;;;;;;;3.06;52.74;94309.28;5124156;28;20046;-77
2022/04/12 03:50:37;;;;;;;7.57;3.50;;;;;;;3.05;53.15;94304.25;5123837;28;20335;-76
2022/04/12 03:53:03;;;;;;;7.97;4.22;;;;;;;2.97;53.25;94311.59;5123894;28;20023;-76
2022/04/12 03:55:31;;;;;;;7.93;4.00;;;;;;;2.88;54.00;94299.94;5124054;28;20027;-76
2022/04/12 03:57:58;;;;;;;8.95;3.63;;;;;;;2.86;54.25;94309.94;5123659;28;20027;-76
2022/04/12 04:00:23;;;;;;;10.68;3.50;;;;;;;2.77;54.39;94309.63;5123665;28;20327;-76
2022/04/12 04:02:48;;;;;;;8.38;3.75;;;;;;;2.72;54.69;94314.03;5105531;28;20043;-77
2022/04/12 04:05:14;;;;;;;8.45;3.67;;;;;;;2.69;54.52;94307.47;5123848;28;20020;-77
2022/04/12 04:07:39;;;;;;;11.80;4.22;;;;;;;2.70;53.74;94316.94;5123546;28;20066;-76
2022/04/12 04:10:05;;;;;;;11.32;5.00;;;;;;;2.68;53.76;94308.50;5123431;28;20023;-76
2022/04/12 04:12:31;;;;;;;13.27;4.50;;;;;;;2.71;53.80;94312.47;5123118;28;20026;-76
2022/04/12 04:14:56;;;;;;;16.98;4.18;;;;;;;2.73;54.15;94315.66;5123399;28;20039;-76
2022/04/12 04:17:22;;;;;;;8.45;4.57;;;;;;;2.76;55.16;94315.91;5123391;28;20027;-76
2022/04/12 04:19:47;;;;;;;15.90;5.00;;;;;;;2.74;54.81;94319.84;5123558;28;20019;-77
2022/04/12 04:22:12;;;;;;;9.60;4.60;;;;;;;2.76;54.73;94323.03;5123015;28;20057;-76
2022/04/12 04:24:38;;;;;;;12.18;4.95;;;;;;;2.79;54.82;94325.16;5123275;28;20016;-75
2022/04/12 04:27:05;;;;;;;13.45;5.78;;;;;;;2.81;54.77;94323.06;5123048;28;20043;-74
2022/04/12 04:29:33;;;;;;;10.55;5.00;;;;;;;2.81;54.86;94325.72;5123146;28;20080;-76
2022/04/12 04:31:58;;;;;;;15.85;5.65;;;;;;;2.87;54.74;94321.25;5123020;28;20016;-75
2022/04/12 04:34:24;;;;;;;12.80;6.05;;;;;;;2.91;55.14;94323.16;5122843;28;20334;-74
2022/04/12 04:36:50;;;;;;;10.52;5.40;;;;;;;2.92;55.14;94335.25;5123161;28;20112;-76
2022/04/12 04:39:15;;;;;;;23.63;6.43;;;;;;;2.98;55.28;94336.88;5123008;28;20038;-77
2022/04/12 04:41:41;;;;;;;30.90;6.53;;;;;;;3.04;55.19;94335.06;5122998;28;20022;-77
2022/04/12 04:44:07;;;;;;;9.45;5.20;;;;;;;3.03;55.28;94330.84;5122778;28;20038;-77
2022/04/12 04:46:33;;;;;;;18.45;5.57;;;;;;;3.07;55.52;94346.94;5123247;28;20100;-78
2022/04/12 04:48:58;;;;;;;22.63;7.43;;;;;;;3.13;55.90;94351.19;5122688;28;20020;-76
2022/04/12 04:51:24;;;;;;;19.50;7.95;;;;;;;3.13;55.85;94351.19;5123243;28;20031;-76
2022/04/12 04:53:57;;;;;;;27.48;7.47;;;;;;;3.17;55.93;94347.78;5122870;28;20340;-76
2022/04/12 04:56:23;;;;;;;23.50;8.02;;;;;;;3.22;55.82;94350.47;5123113;28;20206;-75
2022/04/12 04:58:48;;;;;;;28.70;9.48;;;;;;;3.25;55.83;94353.63;5122528;28;20087;-77
2022/04/12 05:01:14;;;;;;;26.95;11.43;;;;;;;3.25;55.92;94351.78;5122845;28;20043;-77
2022/04/12 05:03:39;;;;;;;29.75;9.82;;;;;;;3.30;55.67;94346.56;5122913;28;20026;-77
2022/04/12 05:06:05;;;;;;;33.20;8.63;;;;;;;3.33;55.59;94348.66;5123107;28;20095;-77
2022/04/12 05:08:30;;;;;;;25.17;9.05;;;;;;;3.33;55.46;94348.66;5122715;28;20280;-74
2022/04/12 05:10:56;;;;;;;26.67;6.78;;;;;;;3.38;54.63;94340.81;5122814;28;20217;-74
2022/04/12 05:13:21;;;;;;;17.17;6.30;;;;;;;3.40;54.73;94351.88;5122735;28;20092;-76
2022/04/12 05:15:46;;;;;;;16.63;5.88;;;;;;;3.46;54.57;94357.16;5122510;28;20344;-76
2022/04/12 05:18:12;;;;;;;23.95;6.40;;;;;;;3.40;54.40;94351.88;5122740;28;20016;-75
2022/04/12 05:20:38;;;;;;;9.73;5.65;;;;;;;3.41;53.84;94348.19;5122647;28;20016;-76
2022/04/12 05:23:03;;;;;;;18.23;6.90;;;;;;;3.42;55.16;94351.63;5122875;28;20019;-78
2022/04/12 05:25:29;;;;;;;18.70;6.97;;;;;;;3.50;56.39;94345.88;5122601;28;20015;-75
2022/04/12 05:27:55;;;;;;;19.27;6.00;;;;;;;3.61;54.50;94358.03;5122859;28;20027;-75
2022/04/12 05:30:21;;;;;;;14.13;7.13;;;;;;;3.61;54.11;94354.63;5122616;28;20043;-75
2022/04/12 05:32:47;;;;;;;17.60;6.07;;;;;;;3.69;53.85;94351.47;5122470;28;20027;-77
2022/04/12 05:35:13;;;;;;;23.02;6.80;;;;;;;3.72;53.80;94350.97;5125275;28;20244;-76
2022/04/12 05:37:42;;;;;;;12.75;5.95;;;;;;;3.80;53.50;94349.69;5126354;28;20245;-76
2022/04/12 05:40:09;;;;;;;12.65;6.13;;;;;;;3.87;53.32;94354.69;5126100;28;20031;-77
2022/04/12 05:42:34;;;;;;;20.08;8.45;;;;;;;3.95;53.12;94354.22;5126055;28;20035;-78
2022/04/12 05:45:00;;;;;;;15.40;6.30;;;;;;;4.01;53.31;94350.56;5126425;28;20206;-77
2022/04/12 05:47:25;;;;;;;14.50;6.07;;;;;;;4.11;52.75;94350.59;5126589;28;20337;-79
2022/04/12 05:49:51;;;;;;;17.95;6.75;;;;;;;4.19;52.25;94341.34;5126500;28;20031;-79
2022/04/12 05:52:16;;;;;;;23.88;7.82;;;;;;;4.24;52.38;94344.00;5126431;28;20065;-80
2022/04/12 05:54:41;;;;;;;12.38;7.32;;;;;;;4.32;52.63;94338.22;5126407;28;20207;-79
2022/04/12 05:57:07;;;;;;;22.90;9.35;;;;;;;4.41;52.14;94341.13;5126172;28;20065;-76
2022/04/12 05:59:32;;;;;;;17.13;6.85;;;;;;;4.50;51.28;94344.84;5125950;28;20199;-76
2022/04/12 06:01:58;;;;;;;23.95;7.55;;;;;;;4.61;51.12;94345.63;5125791;28;20355;-77
2022/04/12 06:04:23;;;;;;;19.15;7.50;;;;;;;4.65;51.97;94354.63;5126069;28;20015;-78
2022/04/12 06:06:48;;;;;;;14.63;6.72;;;;;;;4.68;52.21;94358.56;5107580;28;20032;-79
2022/04/12 06:09:14;;;;;;;19.67;7.55;;;;;;;4.82;52.40;94363.09;5125557;28;20015;-78
2022/04/12 06:11:39;;;;;;;18.88;7.45;;;;;;;4.86;51.56;94365.97;5125917;28;20028;-78
2022/04/12 06:14:05;;;;;;;22.45;7.22;;;;;;;4.99;51.46;94356.75;5125731;28;20030;-76
2022/04/12 06:16:30;;;;;;;17.73;7.68;;;;;;;5.11;50.98;94362.53;5107513;28;20031;-77
2022/04/12 06:18:56;;;;;;;31.52;6.95;;;;;;;5.23;50.54;94367.53;5125930;28;20022;-78
2022/04/12 06:21:22;;;;;;;13.52;6.43;;;;;;;5.32;49.38;94360.66;5125679;28;20027;-76
2022/04/12 06:23:47;;;;;;;29.95;7.70;;;;;;;5.39;49.15;94373.59;5125484;28;20016;-75
2022/04/12 06:26:12;;;;;;;18.52;7.90;;;;;;;5.41;48.46;94363.53;5125170;28;20330;-74
2022/04/12 06:28:38;;;;;;;15.32;6.65;;;;;;;5.55;48.03;94369.06;5125297;28;20194;-74
2022/04/12 06:31:03;;;;;;;15.05;6.88;;;;;;;5.64;48.14;94378.03;5125194;28;20051;-74
2022/04/12 06:33:29;;;;;;;27.92;8.80;;;;;;;5.70;48.40;94370.84;5125158;28;20034;-73
2022/04/12 06:35:55;;;;;;;18.20;7.88;;;;;;;5.74;47.88;94378.00;5125190;28;20036;-75
2022/04/12 06:38:20;;;;;;;20.17;7.65;;;;;;;5.75;47.00;94371.63;5124682;28;20016;-75
2022/04/12 06:40:49;;;;;;;21.98;9.40;;;;;;;5.84;46.42;94369.22;5105857;28;20051;-75
2022/04/12 06:43:14;;;;;;;23.40;7.25;;;;;;;5.94;45.93;94385.09;5125192;28;20087;-76
2022/04/12 06:45:40;;;;;;;25.33;7.63;;;;;;;5.90;45.38;94375.28;5106423;28;20019;-75
2022/04/12 06:48:06;;;;;;;17.70;6.38;;;;;;;5.91;45.80;94382.19;5125136;28;20040;-74
2022/04/12 06:50:32;;;;;;;13.13;6.63;;;;;;;5.95;45.87;94375.31;5125230;28;20034;-77
2022/04/12 06:52:58;;;;;;;27.17;6.47;;;;;;;6.00;46.08;94384.03;5124989;28;20086;-75
2022/04/12 06:55:24;;;;;;;20.77;6.63;;;;;;;6.11;44.92;94387.41;5124995;28;20069;-75
2022/04/12 06:57:50;;;;;;;21.95;7.88;;;;;;;6.17;45.53;94375.75;5124741;28;20083;-76
2022/04/12 07:00:18;;;;;;;17.65;6.50;;;;;;;6.26;45.26;94389.19;5124905;28;20027;-76
2022/04/12 07:02:44;;;;;;;9.32;4.03;;;;;;;6.18;42.35;94390.56;5124715;28;20024;-76
2022/04/12 07:05:10;;;;;;;6.95;3.80;;;;;;;6.04;40.80;94376.31;5124945;28;20016;-76
2022/04/12 07:07:40;;;;;;;15.10;5.00;;;;;;;6.02;43.64;94378.44;5124934;28;20325;-77
2022/04/12 07:10:08;;;;;;;9.57;3.00;;;;;;;6.16;40.09;94387.38;5124712;28;20024;-76
2022/04/12 07:12:34;;;;;;;7.53;2.47;;;;;;;6.21;39.09;94371.50;5124069;28;20039;-76
2022/04/12 07:14:59;;;;;;;5.47;2.65;;;;;;;6.35;39.15;94369.03;5124678;28;20028;-76
2022/04/12 07:17:25;;;;;;;3.40;1.77;;;;;;;6.39;37.70;94366.63;5125122;28;20217;-76
2022/04/12 07:19:50;;;;;;;5.18;2.45;;;;;;;6.40;37.00;94370.84;5124445;28;20042;-75
2022/04/12 07:22:16;;;;;;;6.90;2.50;;;;;;;6.51;39.39;94382.97;5124766;28;20023;-77
2022/04/12 07:24:41;;;;;;;5.10;2.08;;;;;;;6.53;36.59;94374.75;5124386;28;20024;-77
2022/04/12 07:27:07;;;;;;;5.97;1.73;;;;;;;6.60;36.20;94364.66;5124336;28;20028;-76
2022/04/12 07:29:32;;;;;;;4.38;1.50;;;;;;;6.76;35.87;94382.03;5105328;28;20067;-76
2022/04/12 07:31:58;;;;;;;4.20;2.15;;;;;;;6.80;35.80;94374.31;5124162;28;20016;-75
2022/04/12 07:34:23;;;;;;;3.63;1.60;;;;;;;6.88;34.19;94373.72;5123935;28;20317;-75
2022/04/12 07:36:53;;;;;;;5.82;1.98;;;;;;;6.92;34.62;94377.41;5123997;28;20026;-77
2022/04/12 07:39:19;;;;;;;7.47;1.95;;;;;;;6.99;33.35;94372.56;5124060;28;20020;-75
2022/04/12 07:41:47;;;;;;;7.55;1.83;;;;;;;7.03;35.23;94384.19;5123822;28;20031;-75
2022/04/12 07:44:13;;;;;;;4.35;2.10;;;;;;;6.95;35.06;94381.34;5123775;28;20020;-78
2022/04/12 07:46:39;;;;;;;5.50;1.80;;;;;;;6.97;34.16;94379.22;5123927;28;20076;-77
2022/04/12 07:49:04;;;;;;;7.60;3.35;;;;;;;6.99;33.67;94359.31;5123831;28;20031;-79
2022/04/12 07:51:30;;;;;;;4.88;1.90;;;;;;;6.97;34.85;94390.59;5123754;28;20019;-76
2022/04/12 07:53:55;;;;;;;4.30;1.55;;;;;;;7.03;35.07;94380.75;5123926;28;20318;-77
2022/04/12 07:56:20;;;;;;;4.18;1.90;;;;;;;7.01;34.77;94378.38;5123324;28;20020;-76
2022/04/12 07:58:46;;;;;;;8.57;1.77;;;;;;;7.08;34.12;94379.91;5123618;28;20095;-75
2022/04/12 08:01:12;;;;;;;5.35;1.55;;;;;;;7.12;34.56;94370.34;5123687;28;20116;-73
2022/04/12 08:03:39;;;;;;;4.35;1.73;;;;;;;7.15;34.10;94375.09;5123807;28;20314;-73
2022/04/12 08:06:05;;;;;;;6.53;1.88;;;;;;;7.14;34.16;94368.22;5123618;28;20051;-79
2022/04/12 08:08:32;;;;;;;4.35;1.75;;;;;;;7.10;34.12;94353.94;5105750;28;20034;-76
2022/04/12 08:10:58;;;;;;;4.57;2.20;;;;;;;7.09;33.05;94357.66;5123664;28;20360;-79
2022/04/12 08:13:24;;;;;;;4.57;1.60;;;;;;;7.13;34.65;94350.72;5123556;28;20019;-76
2022/04/12 08:15:49;;;;;;;6.88;1.90;;;;;;;7.21;33.89;94350.13;5105309;28;20313;-81
2022/04/12 08:18:15;;;;;;;2.97;1.40;;;;;;;7.31;33.53;94355.34;5123579;28;20023;-75
2022/04/12 08:20:41;;;;;;;3.45;1.58;;;;;;;7.32;33.02;94350.81;5123672;28;20019;-75
2022/04/12 08:23:06;;;;;;;4.60;1.88;;;;;;;7.29;34.02;94360.13;5123515;28;20098;-76
2022/04/12 08:25:32;;;;;;;4.55;1.55;;;;;;;7.34;33.24;94338.06;5123427;28;20015;-76
2022/04/12 08:27:57;;;;;;;6.63;2.22;;;;;;;7.44;33.36;94356.53;5123479;28;20340;-76
2022/04/12 08:30:23;;;;;;;5.13;2.17;;;;;;;7.59;33.45;94352.91;5123321;28;20026;-76
2022/04/12 08:32:48;;;;;;;5.80;2.00;;;;;;;7.56;33.66;94346.31;5123430;28;20384;-77
2022/04/12 08:35:14;;;;;;;10.52;2.10;;;;;;;7.52;33.75;94325.94;5123339;28;20048;-78
2022/04/12 08:37:40;;;;;;;6.13;2.05;;;;;;;7.62;32.72;94331.16;5123260;28;20019;-77
2022/04/12 08:40:06;;;;;;;4.40;2.22;;;;;;;7.71;33.85;94344.56;5123224;28;20337;-75
2022/04/12 08:42:31;;;;;;;7.55;2.35;;;;;;;7.69;33.54;94318.31;5123043;28;20330;-74
2022/04/12 08:44:58;;;;;;;4.90;2.05;;;;;;;7.77;33.16;94338.13;5123141;28;20012;-74
2022/04/12 08:47:24;;;;;;;14.43;2.30;;;;;;;7.79;34.06;94326.16;5123046;28;20019;-75
2022/04/12 08:49:50;;;;;;;8.88;2.25;;;;;;;7.91;31.09;94332.94;5123309;28;20037;-77
2022/04/12 08:52:15;;;;;;;5.15;2.00;;;;;;;7.92;30.76;94323.91;5122993;28;20016;-74
2022/04/12 08:54:43;;;;;;;6.15;1.65;;;;;;;8.08;33.74;94324.50;5123130;28;20080;-76
2022/04/12 08:57:09;;;;;;;8.77;3.00;;;;;;;8.20;33.07;94317.69;5123194;28;20035;-74
2022/04/12 08:59:35;;;;;;;5.50;2.30;;;;;;;8.18;31.67;94301.25;5122788;28;20198;-75
2022/04/12 09:02:05;;;;;;;5.43;2.03;;;;;;;8.14;32.62;94329.47;5122888;28;20206;-73
2022/04/12 09:04:32;;;;;;;5.65;2.45;;;;;;;8.24;31.92;94316.06;5122968;28;20012;-74
2022/04/12 09:06:59;;;;;;;4.78;2.40;;;;;;;8.37;31.69;94303.13;5122661;28;20029;-74
2022/04/12 09:09:27;;;;;;;9.30;2.90;;;;;;;8.47;32.43;94308.31;5125016;28;20092;-73
2022/04/12 09:11:58;;;;;;;5.50;2.13;;;;;;;8.57;33.22;94302.06;5127058;28;20035;-73
2022/04/12 09:14:25;;;;;;;6.88;2.30;;;;;;;8.44;31.99;94303.56;5126663;28;20091;-76
2022/04/12 09:16:52;;;;;;;5.25;2.45;;;;;;;8.41;31.31;94285.56;5127222;28;20318;-76
2022/04/12 09:19:37;;;;;;;11.07;2.10;;;;;;;8.61;32.77;94285.25;5127211;28;20204;-77
2022/04/12 09:22:09;;;;;;;9.20;2.28;;;;;;;8.60;31.61;94286.31;5127124;28;20023;-75
2022/04/12 09:24:37;;;;;;;3.50;1.63;;;;;;;8.63;33.18;94296.38;5126901;28;20020;-75
2022/04/12 09:27:02;;;;;;;3.15;1.60;;;;;;;8.64;31.97;94297.16;5126741;28;20587;-75
2022/04/12 09:29:30;;;;;;;3.33;1.55;;;;;;;8.71;32.86;94300.25;5126789;28;20027;-74
2022/04/12 09:31:59;;;;;;;13.18;2.65;;;;;;;8.96;32.59;94293.72;5126963;28;20026;-75
2022/04/12 09:34:25;;;;;;;2.55;1.48;;;;;;;9.04;31.45;94290.41;5126571;28;20036;-76
2022/04/12 09:36:50;;;;;;;4.35;1.50;;;;;;;8.96;31.20;94290.28;5126418;28;20197;-75
2022/04/12 09:39:19;;;;;;;5.97;1.83;;;;;;;9.00;32.54;94286.75;5108177;28;20321;-78
2022/04/12 09:41:48;;;;;;;4.18;1.60;;;;;;;9.01;31.58;94279.56;5126592;28;20038;-76
2022/04/12 09:44:17;;;;;;;3.45;1.20;;;;;;;8.84;32.03;94270.25;5126602;28;20053;-77
2022/04/12 09:46:43;;;;;;;5.45;2.05;;;;;;;8.99;32.47;94269.22;5126669;28;20090;-76
2022/04/12 09:49:10;;;;;;;6.32;1.50;;;;;;;9.12;32.75;94269.53;5126734;28;20076;-76
2022/04/12 09:51:37;;;;;;;3.05;1.65;;;;;;;9.16;32.40;94273.16;5126643;28;20026;-77
2022/04/12 09:54:06;;;;;;;3.58;1.17;;;;;;;9.39;31.42;94269.56;5107879;28;20028;-76
2022/04/12 09:56:32;;;;;;;5.55;1.40;;;;;;;9.47;31.94;94260.09;5126336;28;20035;-73
2022/04/12 09:59:00;;;;;;;2.67;1.40;;;;;;;9.49;31.16;94254.50;5126299;28;20341;-74
2022/04/12 10:01:27;;;;;;;3.83;1.48;;;;;;;9.69;32.42;94253.28;5126197;28;20306;-74
2022/04/12 10:03:56;;;;;;;4.65;1.30;;;;;;;9.85;30.76;94243.94;5125843;28;20030;-74
2022/04/12 10:06:27;;;;;;;4.05;1.35;;;;;;;9.92;30.39;94238.19;5125961;28;20195;-75
2022/04/12 10:08:59;;;;;;;3.95;1.10;;;;;;;9.99;30.96;94233.22;5125960;28;20038;-76
2022/04/12 10:11:25;;;;;;;;;;;;;;;10.09;30.75;94234.88;5126389;28;20135;-76
2022/04/12 10:13:51;;;;;;;5.63;1.38;;;;;;;10.07;30.30;94226.41;5126072;28;19994;-76
2022/04/12 10:16:21;;;;;;;2.65;1.10;;;;;;;10.15;31.29;94221.16;5125798;28;20115;-76
2022/04/12 10:18:48;;;;;;;3.50;1.33;;;;;;;10.20;30.45;94225.59;5125887;28;20030;-76
2022/04/12 10:21:14;;;;;;;2.83;1.35;;;;;;;10.23;31.19;94215.09;5125293;28;20028;-76
2022/04/12 10:23:45;;;;;;;4.10;1.40;;;;;;;10.33;30.89;94222.09;5107500;28;20071;-77
2022/04/12 10:26:11;;;;;;;3.17;1.20;;;;;;;10.32;30.29;94217.06;5125395;28;20095;-77
2022/04/12 10:28:42;;;;;;;3.17;1.60;;;;;;;10.27;30.74;94206.50;5125747;28;20019;-76
2022/04/12 10:31:14;;;;;;;6.23;1.13;;;;;;;10.32;30.51;94204.56;5125685;28;20085;-76
2022/04/12 10:33:39;;;;;;;3.17;1.00;;;;;;;10.34;30.46;94198.91;5125318;28;20364;-77
2022/04/12 10:36:06;;;;;;;3.13;1.60;;;;;;;10.50;32.07;94199.34;5125705;28;20067;-79
2022/04/12 10:38:40;;;;;;;3.17;1.00;;;;;;;10.58;29.72;94202.06;5125359;28;20087;-74
2022/04/12 10:41:34;;;;;;;2.63;0.98;;;;;;;10.72;30.92;94211.88;5125480;28;20024;-77
2022/04/12 10:44:00;;;;;;;3.45;1.05;;;;;;;10.80;29.72;94195.13;5123705;28;20028;-77
2022/04/12 10:46:46;;;;;;;3.35;1.38;;;;;;;10.88;29.62;94191.72;5125551;28;20314;-77
2022/04/12 10:49:12;;;;;;;2.80;1.40;;;;;;;11.06;30.21;94191.81;5125105;28;20030;-77
2022/04/12 10:51:41;;;;;;;2.97;1.40;;;;;;;11.25;30.39;94181.66;5125422;28;20225;-79
2022/04/12 10:54:33;;;;;;;8.63;1.13;;;;;;;11.41;29.29;94196.16;5125077;28;20016;-75
2022/04/12 10:57:21;;;;;;;2.13;1.10;;;;;;;11.30;29.62;94189.53;5125201;28;20080;-77
2022/04/12 11:00:09;;;;;;;2.88;1.35;;;;;;;11.27;30.12;94182.16;5125021;28;20028;-77
2022/04/12 11:02:39;;;;;;;6.88;2.03;;;;;;;11.33;29.35;94188.91;5124796;28;20053;-76
2022/04/12 11:05:07;;;;;;;2.65;1.40;;;;;;;11.18;29.89;94178.69;5125174;28;20024;-78
2022/04/12 11:07:35;;;;;;;3.78;1.42;;;;;;;11.35;30.59;94186.72;5125103;28;20007;-77
2022/04/12 11:10:13;;;;;;;2.25;1.15;;;;;;;11.39;29.67;94173.56;5124935;28;20095;-78
2022/04/12 11:12:43;;;;;;;3.55;1.50;;;;;;;11.35;30.55;94173.38;5106778;28;20065;-78
2022/04/12 11:15:27;;;;;;;2.88;1.33;;;;;;;11.39;29.08;94161.00;5124713;28;20238;-78
2022/04/12 11:18:11;;;;;;;2.70;1.10;;;;;;;11.48;29.51;94170.91;5124624;28;20259;-76
2022/04/12 11:20:39;;;;;;;4.50;1.50;;;;;;;11.54;28.67;94153.63;5124766;28;20221;-77
2022/04/12 11:23:08;;;;;;;7.80;2.30;;;;;;;11.71;29.14;94153.69;5124490;28;20049;-78
2022/04/12 11:25:35;;;;;;;8.43;1.55;;;;;;;11.82;28.47;94151.47;5124461;28;20028;-77
2022/04/12 11:28:01;;;;;;;10.35;1.33;;;;;;;11.87;29.66;94147.91;5124483;28;20085;-77
2022/04/12 11:30:28;;;;;;;6.28;1.17;;;;;;;12.07;29.31;94149.16;5124588;28;20110;-77
2022/04/12 11:32:55;;;;;;;2.10;1.08;;;;;;;12.23;28.85;94145.72;5123406;28;20019;-79
2022/04/12 11:35:23;;;;;;;7.25;1.65;;;;;;;12.26;29.79;94148.84;5124151;28;20054;-76
2022/04/12 11:37:49;;;;;;;3.95;1.42;;;;;;;12.33;29.95;94147.25;5124275;28;20046;-77
2022/04/12 11:40:15;;;;;;;1.77;1.00;;;;;;;12.43;29.81;94135.44;5124138;28;20032;-76